createdAt,value
2018-03-03T00:01:00.614Z,36.47
2018-03-03T00:03:26.980Z,39.10
2018-03-03T00:05:53.346Z,38.35
2018-03-03T00:08:19.815Z,38.00
2018-03-03T00:10:46.191Z,37.40
2018-03-03T00:13:12.542Z,38.55
2018-03-03T00:15:38.940Z,38.50
2018-03-03T00:18:05.310Z,37.40
2018-03-03T00:20:31.671Z,38.70
2018-03-03T00:22:58.786Z,36.90
2018-03-03T00:25:25.903Z,39.67
2018-03-03T00:27:52.273Z,38.92
2018-03-03T00:30:18.644Z,40.45
2018-03-03T00:32:45.824Z,41.92
2018-03-03T00:35:12.915Z,41.35
2018-03-03T00:37:39.275Z,43.28
2018-03-03T00:40:06.412Z,41.00
2018-03-03T00:42:33.519Z,42.00
2018-03-03T00:44:59.912Z,41.67
2018-03-03T00:47:27.045Z,43.03
2018-03-03T00:49:54.153Z,42.47
2018-03-03T00:52:20.512Z,41.67
2018-03-03T00:54:46.882Z,39.67
2018-03-03T00:57:13.313Z,40.10
2018-03-03T00:59:39.690Z,42.65
2018-03-03T01:02:06.061Z,40.92
2018-03-03T01:04:33.173Z,40.53
2018-03-03T01:06:59.528Z,41.45
2018-03-03T01:09:25.907Z,51.30
2018-03-03T01:11:52.286Z,48.25
2018-03-03T01:14:18.648Z,40.42
2018-03-03T01:16:45.766Z,41.00
2018-03-03T01:19:12.171Z,41.30
2018-03-03T01:21:38.527Z,41.05
2018-03-03T01:24:04.895Z,41.13
2018-03-03T01:26:31.267Z,42.80
2018-03-03T01:28:57.607Z,39.80
2018-03-03T01:31:23.969Z,39.65
2018-03-03T01:33:51.100Z,35.80
2018-03-03T01:36:17.457Z,40.70
2018-03-03T01:38:44.587Z,38.85
2018-03-03T01:41:11.683Z,40.50
2018-03-03T01:43:38.052Z,42.15
2018-03-03T01:46:04.431Z,39.92
2018-03-03T01:48:30.810Z,40.95
2018-03-03T01:50:57.230Z,41.97
2018-03-03T01:53:23.583Z,41.80
2018-03-03T01:55:49.942Z,43.28
2018-03-03T01:58:17.169Z,43.67
2018-03-03T02:00:43.540Z,39.92
2018-03-03T02:03:09.926Z,40.03
2018-03-03T02:05:36.280Z,42.28
2018-03-03T02:08:03.386Z,40.20
2018-03-03T02:10:29.720Z,41.30
2018-03-03T02:12:56.113Z,38.63
2018-03-03T02:15:22.488Z,38.38
2018-03-03T02:17:48.846Z,39.40
2018-03-03T02:20:15.937Z,39.50
2018-03-03T02:22:42.298Z,42.35
2018-03-03T02:25:08.657Z,41.95
2018-03-03T02:27:35.784Z,40.28
2018-03-03T02:30:02.157Z,41.60
2018-03-03T02:32:29.254Z,41.53
2018-03-03T02:34:55.613Z,42.00
2018-03-03T02:37:22.740Z,40.75
2018-03-03T02:39:49.122Z,39.67
2018-03-03T02:42:15.494Z,40.12
2018-03-03T02:44:41.850Z,38.47
2018-03-03T02:47:08.213Z,39.42
2018-03-03T02:49:34.563Z,42.45
2018-03-03T02:52:00.934Z,39.28
2018-03-03T02:54:27.306Z,44.58
2018-03-03T02:56:53.683Z,40.40
2018-03-03T02:59:20.035Z,42.10
2018-03-03T03:01:46.399Z,41.42
2018-03-03T03:04:12.751Z,42.15
2018-03-03T03:06:39.131Z,43.47
2018-03-03T03:09:05.548Z,44.50
2018-03-03T03:11:31.922Z,40.70
2018-03-03T03:13:59.051Z,40.80
2018-03-03T03:16:26.142Z,41.97
2018-03-03T03:18:52.514Z,40.53
2018-03-03T03:21:19.629Z,40.15
2018-03-03T03:23:46.047Z,43.13
2018-03-03T03:26:12.421Z,40.53
2018-03-03T03:28:38.783Z,37.78
2018-03-03T03:31:05.189Z,38.28
2018-03-03T03:33:31.557Z,36.88
2018-03-03T03:35:58.653Z,41.33
2018-03-03T03:38:25.002Z,36.30
2018-03-03T03:40:51.362Z,34.80
2018-03-03T03:43:18.464Z,34.90
2018-03-03T03:45:44.819Z,38.35
2018-03-03T03:48:11.177Z,34.25
2018-03-03T03:50:37.542Z,39.88
2018-03-03T03:53:03.917Z,42.65
2018-03-03T03:55:30.362Z,44.83
2018-03-03T03:57:57.470Z,42.62
2018-03-03T04:00:23.856Z,41.25
2018-03-03T04:02:50.233Z,43.38
2018-03-03T04:05:16.627Z,41.42
2018-03-03T04:07:42.975Z,41.92
2018-03-03T04:10:09.338Z,42.08
2018-03-03T04:12:35.691Z,42.35
2018-03-03T04:15:02.058Z,41.05
2018-03-03T04:17:28.407Z,43.65
2018-03-03T04:19:54.786Z,44.63
2018-03-03T04:22:21.884Z,45.05
2018-03-03T04:24:48.285Z,44.80
2018-03-03T04:27:14.676Z,41.60
2018-03-03T04:29:41.045Z,45.45
2018-03-03T04:32:08.184Z,41.85
2018-03-03T04:34:35.287Z,43.80
2018-03-03T04:37:01.802Z,43.17
2018-03-03T04:39:28.212Z,43.13
2018-03-03T04:41:54.569Z,43.83
2018-03-03T04:44:20.974Z,41.65
2018-03-03T04:46:47.358Z,40.17
2018-03-03T04:49:13.835Z,43.47
2018-03-03T04:51:40.190Z,40.92
2018-03-03T04:54:06.576Z,43.60
2018-03-03T04:56:32.970Z,39.85
2018-03-03T04:59:01.410Z,40.25
2018-03-03T05:01:33.834Z,41.45
2018-03-03T05:04:01.956Z,40.75
2018-03-03T05:06:33.119Z,41.70
2018-03-03T05:08:59.514Z,40.12
2018-03-03T05:11:26.646Z,39.47
2018-03-03T05:14:11.042Z,42.10
2018-03-03T05:16:53.907Z,39.65
2018-03-03T05:19:26.472Z,38.00
2018-03-03T05:22:08.940Z,39.97
2018-03-03T05:24:42.206Z,42.30
2018-03-03T05:27:16.035Z,42.78
2018-03-03T05:29:49.128Z,42.38
2018-03-03T05:32:21.430Z,40.78
2018-03-03T05:34:53.774Z,38.08
2018-03-03T05:37:26.362Z,39.85
2018-03-03T05:40:10.506Z,40.40
2018-03-03T05:42:43.020Z,40.75
2018-03-03T05:45:15.578Z,41.33
2018-03-03T05:47:47.930Z,41.75
2018-03-03T05:50:30.211Z,76.22
2018-03-03T05:53:03.414Z,61.22
2018-03-03T05:55:35.566Z,48.08
2018-03-03T05:58:19.391Z,44.55
2018-03-03T06:00:52.715Z,42.60
2018-03-03T06:03:38.850Z,37.08
2018-03-03T06:06:08.048Z,36.10
2018-03-03T06:08:35.357Z,36.85
2018-03-03T06:11:02.478Z,39.28
2018-03-03T06:13:28.884Z,40.05
2018-03-03T06:15:55.278Z,39.42
2018-03-03T06:18:21.622Z,38.40
2018-03-03T06:20:47.986Z,38.15
2018-03-03T06:23:14.346Z,40.22
2018-03-03T06:25:41.489Z,39.08
2018-03-03T06:28:08.617Z,38.55
2018-03-03T06:30:34.978Z,41.47
2018-03-03T06:33:02.128Z,41.88
2018-03-03T06:35:29.221Z,58.03
2018-03-03T06:37:55.607Z,46.10
2018-03-03T06:40:21.962Z,42.05
2018-03-03T06:42:48.335Z,40.03
2018-03-03T06:45:14.687Z,41.25
2018-03-03T06:47:41.986Z,43.13
2018-03-03T06:50:08.362Z,43.20
2018-03-03T06:52:34.724Z,43.95
2018-03-03T06:55:01.838Z,44.75
2018-03-03T06:57:28.236Z,42.58
2018-03-03T06:59:54.633Z,43.78
2018-03-03T07:02:21.720Z,45.78
2018-03-03T07:04:48.070Z,43.90
2018-03-03T07:07:14.430Z,42.65
2018-03-03T07:09:41.582Z,47.10
2018-03-03T07:12:08.728Z,43.47
2018-03-03T07:14:38.902Z,44.83
2018-03-03T07:17:05.343Z,47.38
2018-03-03T07:19:31.740Z,44.70
2018-03-03T07:21:58.840Z,44.40
2018-03-03T07:24:25.205Z,52.60
2018-03-03T07:26:51.618Z,43.63
2018-03-03T07:29:17.988Z,54.50
2018-03-03T07:31:44.351Z,51.60
2018-03-03T07:34:10.721Z,42.35
2018-03-03T07:36:37.849Z,55.00
2018-03-03T07:39:04.293Z,63.15
2018-03-03T07:41:30.687Z,63.10
2018-03-03T07:43:57.168Z,57.70
2018-03-03T07:46:23.523Z,87.20
2018-03-03T07:48:49.964Z,89.45
2018-03-03T07:51:16.398Z,58.38
2018-03-03T07:53:42.757Z,49.38
2018-03-03T07:56:09.131Z,50.63
2018-03-03T07:58:47.467Z,46.08
2018-03-03T08:01:13.859Z,47.42
2018-03-03T08:03:40.354Z,54.20
2018-03-03T08:06:06.770Z,46.90
2018-03-03T08:08:33.204Z,46.58
2018-03-03T08:10:59.590Z,52.00
2018-03-03T08:13:25.955Z,64.12
2018-03-03T08:15:53.057Z,54.13
2018-03-03T08:18:19.426Z,52.42
2018-03-03T08:20:46.533Z,55.22
2018-03-03T08:23:12.915Z,51.45
2018-03-03T08:25:40.046Z,51.08
2018-03-03T08:28:07.169Z,47.38
2018-03-03T08:30:33.573Z,62.05
2018-03-03T08:33:00.031Z,49.78
2018-03-03T08:35:26.399Z,48.58
2018-03-03T08:37:53.519Z,54.05
2018-03-03T08:40:19.889Z,52.45
2018-03-03T08:42:46.259Z,54.42
2018-03-03T08:45:12.616Z,50.35
2018-03-03T08:47:38.954Z,54.22
2018-03-03T08:50:05.551Z,55.33
2018-03-03T08:52:31.951Z,52.88
2018-03-03T08:54:58.351Z,49.67
2018-03-03T08:57:25.454Z,52.80
2018-03-03T08:59:51.812Z,52.65
2018-03-03T09:02:18.209Z,52.08
2018-03-03T09:04:45.292Z,49.75
2018-03-03T09:07:11.655Z,54.42
2018-03-03T09:09:38.776Z,48.97
2018-03-03T09:12:05.158Z,47.72
2018-03-03T09:14:31.528Z,48.03
2018-03-03T09:16:57.890Z,48.35
2018-03-03T09:19:24.255Z,51.00
2018-03-03T09:21:50.614Z,47.90
2018-03-03T09:24:16.993Z,52.30
2018-03-03T09:26:44.104Z,50.95
2018-03-03T09:29:10.481Z,53.05
2018-03-03T09:31:36.852Z,55.80
2018-03-03T09:34:03.327Z,51.55
2018-03-03T09:36:30.488Z,50.70
2018-03-03T09:38:57.609Z,50.30
2018-03-03T09:41:23.969Z,53.33
2018-03-03T09:43:51.075Z,50.30
2018-03-03T09:46:17.474Z,51.47
2018-03-03T09:48:43.892Z,50.22
2018-03-03T09:51:10.334Z,49.97
2018-03-03T09:53:36.727Z,52.25
2018-03-03T09:56:04.759Z,51.00
2018-03-03T09:58:31.134Z,50.97
2018-03-03T10:00:57.550Z,49.53
2018-03-03T10:03:24.810Z,55.93
2018-03-03T10:05:51.258Z,53.50
2018-03-03T10:08:17.675Z,57.97
2018-03-03T10:10:44.063Z,58.07
2018-03-03T10:13:10.419Z,55.30
2018-03-03T10:15:36.831Z,56.33
2018-03-03T10:18:03.219Z,62.50
2018-03-03T10:20:29.580Z,58.10
2018-03-03T10:22:55.955Z,65.80
2018-03-03T10:25:22.330Z,62.50
2018-03-03T10:27:48.695Z,70.68
2018-03-03T10:30:15.051Z,63.60
2018-03-03T10:32:41.430Z,57.93
2018-03-03T10:35:07.859Z,55.25
2018-03-03T10:37:34.257Z,56.35
2018-03-03T10:40:00.662Z,54.35
2018-03-03T10:42:27.035Z,55.55
2018-03-03T10:44:53.394Z,58.47
2018-03-03T10:47:19.753Z,60.33
2018-03-03T10:49:46.137Z,55.33
2018-03-03T10:52:13.279Z,54.22
2018-03-03T10:54:40.375Z,52.33
2018-03-03T10:57:06.771Z,56.37
2018-03-03T10:59:33.874Z,53.20
2018-03-03T11:02:00.237Z,50.95
2018-03-03T11:04:26.604Z,57.97
2018-03-03T11:06:53.029Z,53.67
2018-03-03T11:09:19.426Z,54.72
2018-03-03T11:11:45.823Z,48.75
2018-03-03T11:14:12.227Z,46.40
2018-03-03T11:16:38.659Z,48.97
2018-03-03T11:19:05.026Z,44.53
2018-03-03T11:21:31.430Z,46.53
2018-03-03T11:23:57.855Z,43.43
2018-03-03T11:26:25.994Z,44.60
2018-03-03T11:28:52.399Z,45.60
2018-03-03T11:31:18.802Z,36.90
2018-03-03T11:33:46.057Z,33.87
2018-03-03T11:36:12.430Z,33.50
2018-03-03T11:38:38.786Z,40.87
2018-03-03T11:41:05.887Z,39.20
2018-03-03T11:43:32.373Z,37.67
2018-03-03T11:45:59.543Z,41.13
2018-03-03T11:48:26.632Z,41.60
2018-03-03T11:50:52.998Z,39.88
2018-03-03T11:53:19.363Z,39.10
2018-03-03T11:55:45.764Z,40.80
2018-03-03T11:58:12.880Z,37.47
2018-03-03T12:00:39.267Z,44.10
2018-03-03T12:03:05.653Z,39.13
2018-03-03T12:05:32.021Z,46.03
2018-03-03T12:07:59.136Z,43.37
2018-03-03T12:10:25.539Z,40.53
2018-03-03T12:12:51.930Z,43.10
2018-03-03T12:15:19.055Z,43.33
2018-03-03T12:17:45.421Z,40.40
2018-03-03T12:20:11.787Z,52.90
2018-03-03T12:22:38.164Z,44.93
2018-03-03T12:25:04.593Z,49.00
2018-03-03T12:27:31.040Z,37.97
2018-03-03T12:29:58.211Z,39.87
2018-03-03T12:32:24.586Z,56.60
2018-03-03T12:34:50.957Z,39.03
2018-03-03T12:37:17.346Z,38.83
2018-03-03T12:39:43.721Z,38.13
2018-03-03T12:42:10.092Z,35.03
2018-03-03T12:44:36.430Z,37.53
2018-03-03T12:47:02.820Z,36.83
2018-03-03T12:49:29.183Z,38.60
2018-03-03T12:51:55.577Z,41.80
2018-03-03T12:54:21.931Z,38.87
2018-03-03T12:56:48.340Z,44.73
2018-03-03T12:59:15.462Z,37.40
2018-03-03T13:01:41.827Z,41.50
2018-03-03T13:04:08.268Z,41.00
2018-03-03T13:06:34.624Z,38.80
2018-03-03T13:09:01.006Z,39.93
2018-03-03T13:11:28.323Z,36.05
2018-03-03T13:13:54.732Z,37.42
2018-03-03T13:16:21.135Z,37.97
2018-03-03T13:18:47.497Z,38.10
2018-03-03T13:21:13.870Z,35.00
2018-03-03T13:23:40.238Z,33.72
2018-03-03T13:26:06.651Z,34.00
2018-03-03T13:28:33.052Z,35.25
2018-03-03T13:30:59.476Z,36.40
2018-03-03T13:33:25.838Z,33.30
2018-03-03T13:35:52.947Z,30.70
2018-03-03T13:38:19.314Z,33.15
2018-03-03T13:40:46.471Z,34.72
2018-03-03T13:43:13.570Z,32.37
2018-03-03T13:45:39.942Z,31.23
2018-03-03T13:48:06.305Z,30.90
2018-03-03T13:50:32.698Z,32.80
2018-03-03T13:52:59.072Z,34.30
2018-03-03T13:55:25.445Z,34.83
2018-03-03T13:57:51.819Z,33.38
2018-03-03T14:00:18.941Z,34.25
2018-03-03T14:02:45.308Z,38.03
2018-03-03T14:05:11.686Z,33.90
2018-03-03T14:07:38.051Z,33.35
2018-03-03T14:10:05.155Z,31.73
2018-03-03T14:12:31.533Z,34.60
2018-03-03T14:14:58.652Z,32.80
2018-03-03T14:17:25.038Z,30.17
2018-03-03T14:19:51.423Z,30.98
2018-03-03T14:22:17.796Z,30.53
2018-03-03T14:24:44.166Z,31.90
2018-03-03T14:27:10.553Z,29.70
2018-03-03T14:29:37.651Z,29.67
2018-03-03T14:32:05.106Z,29.97
2018-03-03T14:34:44.908Z,35.37
2018-03-03T14:37:24.555Z,36.42
2018-03-03T14:39:50.927Z,30.83
2018-03-03T14:42:17.311Z,31.45
2018-03-03T14:44:43.709Z,33.80
2018-03-03T14:47:10.118Z,35.33
2018-03-03T14:49:36.717Z,31.87
2018-03-03T14:52:03.151Z,35.03
2018-03-03T14:54:29.524Z,33.90
2018-03-03T14:56:55.974Z,35.55
2018-03-03T14:59:23.086Z,36.70
2018-03-03T15:01:49.501Z,64.75
2018-03-03T15:04:15.888Z,70.62
2018-03-03T15:06:42.254Z,38.08
2018-03-03T15:09:08.623Z,32.63
2018-03-03T15:11:34.987Z,35.13
2018-03-03T15:14:01.351Z,30.88
2018-03-03T15:16:27.718Z,31.02
2018-03-03T15:18:54.118Z,34.85
2018-03-03T15:23:52.692Z,34.58
2018-03-03T15:26:19.822Z,38.33
2018-03-03T15:28:47.685Z,36.20
2018-03-03T15:31:14.077Z,31.87
2018-03-03T15:33:40.451Z,37.33
2018-03-03T15:36:06.821Z,33.93
2018-03-03T15:38:33.189Z,35.75
2018-03-03T15:40:59.617Z,34.83
2018-03-03T15:43:26.044Z,34.50
2018-03-03T15:45:52.397Z,33.13
2018-03-03T15:48:18.780Z,37.25
2018-03-03T15:50:45.882Z,36.67
2018-03-03T15:53:12.446Z,30.20
2018-03-03T15:55:38.882Z,34.17
2018-03-03T15:58:05.982Z,27.90
2018-03-03T16:00:32.354Z,28.33
2018-03-03T16:02:59.480Z,29.42
2018-03-03T16:05:25.843Z,29.60
2018-03-03T16:07:52.967Z,29.42
2018-03-03T16:10:19.327Z,26.80
2018-03-03T16:12:46.443Z,28.67
2018-03-03T16:15:12.821Z,31.90
2018-03-03T16:17:39.218Z,32.85
2018-03-03T16:20:05.596Z,29.65
2018-03-03T16:22:31.971Z,37.17
2018-03-03T16:24:58.379Z,28.95
2018-03-03T16:27:24.812Z,29.23
2018-03-03T16:29:51.145Z,31.55
2018-03-03T16:32:17.507Z,32.60
2018-03-03T16:34:43.875Z,34.72
2018-03-03T16:37:10.286Z,30.10
2018-03-03T16:39:37.381Z,32.85
2018-03-03T16:42:03.767Z,31.35
2018-03-03T16:44:30.903Z,31.70
2018-03-03T16:46:57.271Z,30.60
2018-03-03T16:49:23.678Z,29.35
2018-03-03T16:51:50.804Z,31.40
2018-03-03T16:54:17.170Z,31.65
2018-03-03T16:56:43.536Z,27.85
2018-03-03T16:59:09.987Z,28.95
2018-03-03T17:01:36.342Z,32.05
2018-03-03T17:04:03.454Z,32.03
2018-03-03T17:06:29.828Z,28.83
2018-03-03T17:08:56.189Z,28.92
2018-03-03T17:11:22.656Z,28.17
2018-03-03T17:13:49.089Z,29.95
2018-03-03T17:16:15.466Z,29.58
2018-03-03T17:18:42.576Z,33.28
2018-03-03T17:21:08.949Z,31.83
2018-03-03T17:23:36.038Z,33.13
2018-03-03T17:26:02.431Z,42.72
2018-03-03T17:28:29.687Z,42.90
2018-03-03T17:30:56.083Z,37.45
2018-03-03T17:33:22.442Z,41.90
2018-03-03T17:35:49.547Z,63.97
2018-03-03T17:38:15.895Z,33.97
2018-03-03T17:40:42.270Z,35.55
2018-03-03T17:43:08.638Z,33.10
2018-03-03T17:45:35.022Z,31.62
2018-03-03T17:48:01.435Z,32.53
2018-03-03T17:50:28.555Z,30.48
2018-03-03T17:52:54.997Z,29.30
2018-03-03T17:55:21.453Z,30.55
2018-03-03T17:57:48.602Z,30.27
2018-03-03T18:00:15.712Z,31.83
2018-03-03T18:02:42.112Z,28.95
2018-03-03T18:05:08.578Z,28.23
2018-03-03T18:07:35.004Z,30.85
2018-03-03T18:10:01.490Z,30.08
2018-03-03T18:12:27.856Z,31.40
2018-03-03T18:14:54.903Z,32.42
2018-03-03T18:17:21.262Z,30.40
2018-03-03T18:19:47.627Z,33.00
2018-03-03T18:22:14.019Z,33.78
2018-03-03T18:24:40.421Z,29.95
2018-03-03T18:27:06.884Z,30.50
2018-03-03T18:29:33.295Z,31.60
2018-03-03T18:31:59.667Z,34.40
2018-03-03T18:34:26.090Z,37.33
2018-03-03T18:36:52.543Z,46.13
2018-03-03T18:39:18.906Z,43.00
2018-03-03T18:41:46.030Z,42.20
2018-03-03T18:44:12.416Z,33.65
2018-03-03T18:46:39.329Z,32.65
2018-03-03T18:49:05.690Z,45.40
2018-03-03T18:51:32.052Z,34.83
2018-03-03T18:53:58.478Z,31.55
2018-03-03T18:56:24.855Z,38.40
2018-03-03T18:58:51.384Z,63.87
2018-03-03T19:01:17.784Z,54.33
2018-03-03T19:03:44.173Z,53.85
2018-03-03T19:06:10.599Z,107.75
2018-03-03T19:08:36.998Z,117.93
2018-03-03T19:11:04.099Z,60.50
2018-03-03T19:13:31.464Z,58.72
2018-03-03T19:15:57.874Z,171.18
2018-03-03T19:18:24.261Z,62.22
2018-03-03T19:20:50.692Z,57.62
2018-03-03T19:23:17.844Z,72.68
2018-03-03T19:25:44.238Z,56.33
2018-03-03T19:28:10.619Z,35.15
2018-03-03T19:30:37.736Z,41.70
2018-03-03T19:33:04.135Z,44.10
2018-03-03T19:35:30.518Z,45.75
2018-03-03T19:37:56.912Z,45.78
2018-03-03T19:40:23.315Z,34.95
2018-03-03T19:42:49.680Z,33.65
2018-03-03T19:45:16.041Z,48.75
2018-03-03T19:47:42.414Z,47.70
2018-03-03T19:50:08.811Z,42.35
2018-03-03T19:52:35.918Z,34.55
2018-03-03T19:55:02.290Z,33.75
2018-03-03T19:57:28.651Z,35.10
2018-03-03T19:59:55.172Z,32.90
2018-03-03T20:02:22.284Z,32.67
2018-03-03T20:04:48.642Z,31.87
2018-03-03T20:07:15.766Z,32.45
2018-03-03T20:09:42.115Z,31.87
2018-03-03T20:12:08.515Z,30.48
2018-03-03T20:14:34.907Z,32.95
2018-03-03T20:17:02.029Z,32.63
2018-03-03T20:19:29.189Z,32.92
2018-03-03T20:21:56.387Z,34.60
2018-03-03T20:24:24.250Z,37.33
2018-03-03T20:26:50.659Z,44.50
2018-03-03T20:29:17.072Z,35.42
2018-03-03T20:31:43.471Z,33.30
2018-03-03T20:34:09.885Z,35.40
2018-03-03T20:36:36.336Z,35.38
2018-03-03T20:39:02.846Z,34.33
2018-03-03T20:41:29.244Z,37.33
2018-03-03T20:43:55.602Z,39.08
2018-03-03T20:46:22.047Z,37.35
2018-03-03T20:48:48.448Z,37.65
2018-03-03T20:51:14.805Z,33.88
2018-03-03T20:53:41.162Z,35.97
2018-03-03T20:56:07.560Z,36.50
2018-03-03T20:58:33.968Z,37.13
2018-03-03T21:01:01.076Z,34.65
2018-03-03T21:03:27.556Z,33.60
2018-03-03T21:05:53.925Z,32.60
2018-03-03T21:08:20.274Z,33.33
2018-03-03T21:10:46.682Z,31.55
2018-03-03T21:13:13.071Z,32.28
2018-03-03T21:15:40.191Z,36.05
2018-03-03T21:18:06.583Z,33.75
2018-03-03T21:20:32.951Z,33.38
2018-03-03T21:22:59.324Z,35.40
2018-03-03T21:25:26.440Z,35.97
2018-03-03T21:27:52.791Z,38.55
2018-03-03T21:30:19.894Z,44.90
2018-03-03T21:32:46.304Z,37.47
2018-03-03T21:35:12.685Z,35.15
2018-03-03T21:37:39.125Z,34.45
2018-03-03T21:40:05.502Z,33.70
2018-03-03T21:42:31.962Z,35.67
2018-03-03T21:44:58.330Z,34.03
2018-03-03T21:47:25.455Z,56.70
2018-03-03T21:49:51.833Z,37.92
2018-03-03T21:52:18.270Z,39.60
2018-03-03T21:54:44.638Z,37.10
2018-03-03T21:57:10.991Z,37.20
2018-03-03T21:59:37.353Z,38.08
2018-03-03T22:02:03.762Z,35.85
2018-03-03T22:04:30.880Z,34.78
2018-03-03T22:06:57.354Z,37.92
2018-03-03T22:09:23.744Z,35.00
2018-03-03T22:11:50.143Z,34.72
2018-03-03T22:14:16.506Z,36.08
2018-03-03T22:16:42.847Z,36.63
2018-03-03T22:19:09.199Z,35.10
2018-03-03T22:21:36.316Z,40.47
2018-03-03T22:24:02.678Z,36.50
2018-03-03T22:26:29.030Z,37.53
2018-03-03T22:28:56.137Z,37.28
2018-03-03T22:31:22.518Z,36.22
2018-03-03T22:33:48.893Z,35.28
2018-03-03T22:36:15.258Z,33.03
2018-03-03T22:38:42.435Z,31.27
2018-03-03T22:41:08.798Z,33.92
2018-03-03T22:43:35.153Z,34.25
2018-03-03T22:46:03.021Z,36.75
2018-03-03T22:48:29.383Z,36.22
2018-03-03T22:50:55.754Z,35.03
2018-03-03T22:53:22.114Z,34.78
2018-03-03T22:55:48.473Z,33.70
2018-03-03T22:58:14.837Z,39.70
2018-03-03T23:00:41.261Z,40.88
2018-03-03T23:03:07.611Z,38.40
2018-03-03T23:05:34.006Z,42.85
2018-03-03T23:08:00.361Z,38.35
2018-03-03T23:10:26.722Z,36.42
2018-03-03T23:12:53.081Z,35.03
2018-03-03T23:15:20.199Z,35.78
2018-03-03T23:17:46.575Z,35.20
2018-03-03T23:20:13.747Z,39.00
2018-03-03T23:22:40.848Z,35.05
2018-03-03T23:25:07.967Z,40.40
2018-03-03T23:27:35.072Z,37.67
2018-03-03T23:30:01.436Z,35.33
2018-03-03T23:32:27.823Z,36.13
2018-03-03T23:34:54.907Z,35.50
2018-03-03T23:37:21.243Z,38.97
2018-03-03T23:39:47.603Z,37.03
2018-03-03T23:42:13.980Z,37.13
2018-03-03T23:44:41.067Z,38.35
2018-03-03T23:47:07.439Z,36.88
2018-03-03T23:49:34.552Z,36.30
2018-03-03T23:52:00.947Z,37.10
2018-03-03T23:54:27.292Z,36.05
2018-03-03T23:56:53.644Z,35.83
2018-03-03T23:59:20.156Z,38.15
